Weather Data

Pearl Creek Farm: 8878 N Farm Road 75, Walnut Grove MO 65770

<== Previous Day (Monday 04 Aug 2008) | Next Day (Wednesday 06 Aug 2008) ==>

Summary Precipitation Data For Tuesday 05 August 2008

ElementValueUnits
Precipitation0"
Notes(none)
SourceSpringfield-Branson National Airport (SGF)

Summary Temperature Data For Tuesday 05 August 2008

ElementValueUnits
High Temperature96 oF
Low Temperature74 oF
Average Temperature85 oF
High Humidity91 %
Low Humidity44 %
Average Humidity66 %
SourceSpringfield-Branson National Airport (SGF)

Detail Temperature Data For Tuesday 05 August 2008

Date / TimeTemp (F)RH (%)Dew Pt (F)Report Date / TimeSource
2008-08-05 00:52:00 78 82 72.0 2017-12-29 19:14:24.89625 Springfield-Branson National Airport (SGF)
2008-08-05 01:52:00 77 82 71.0 2017-12-29 19:14:24.89625 Springfield-Branson National Airport (SGF)
2008-08-05 02:52:00 76 85 71.0 2017-12-29 19:14:24.89625 Springfield-Branson National Airport (SGF)
2008-08-05 03:52:00 74 88 70.0 2017-12-29 19:14:24.89625 Springfield-Branson National Airport (SGF)
2008-08-05 04:52:00 74 91 71.0 2017-12-29 19:14:24.89625 Springfield-Branson National Airport (SGF)
2008-08-05 05:52:00 75 84 70.0 2017-12-29 19:14:24.89625 Springfield-Branson National Airport (SGF)
2008-08-05 06:52:00 78 79 71.0 2017-12-29 19:14:24.89625 Springfield-Branson National Airport (SGF)
2008-08-05 07:52:00 81 72 71.0 2017-12-29 19:14:24.89625 Springfield-Branson National Airport (SGF)
2008-08-05 08:52:00 85 61 70.0 2017-12-29 19:14:24.89625 Springfield-Branson National Airport (SGF)
2008-08-05 09:52:00 89 52 69.0 2017-12-29 19:14:24.89625 Springfield-Branson National Airport (SGF)
2008-08-05 10:52:00 92 49 70.0 2017-12-29 19:14:24.89625 Springfield-Branson National Airport (SGF)
2008-08-05 11:52:00 94 46 70.0 2017-12-29 19:14:24.89625 Springfield-Branson National Airport (SGF)
2008-08-05 12:52:00 95 46 71.0 2017-12-29 19:14:24.89625 Springfield-Branson National Airport (SGF)
2008-08-05 13:52:00 95 47 72.0 2017-12-29 19:14:24.89625 Springfield-Branson National Airport (SGF)
2008-08-05 14:52:00 96 44 71.0 2017-12-29 19:14:24.89625 Springfield-Branson National Airport (SGF)
2008-08-05 15:52:00 95 46 71.0 2017-12-29 19:14:24.89625 Springfield-Branson National Airport (SGF)
2008-08-05 16:52:00 94 48 71.0 2017-12-29 19:14:24.89625 Springfield-Branson National Airport (SGF)
2008-08-05 17:52:00 92 56 74.0 2017-12-29 19:14:24.89625 Springfield-Branson National Airport (SGF)
2008-08-05 18:52:00 88 66 75.0 2017-12-29 19:14:24.89625 Springfield-Branson National Airport (SGF)
2008-08-05 19:52:00 83 77 75.0 2017-12-29 19:14:24.89625 Springfield-Branson National Airport (SGF)
2008-08-05 20:52:00 84 72 74.0 2017-12-29 19:14:24.89625 Springfield-Branson National Airport (SGF)
2008-08-05 21:52:00 83 70 72.0 2017-12-29 19:14:24.89625 Springfield-Branson National Airport (SGF)
2008-08-05 22:52:00 82 74 73.0 2017-12-29 19:14:24.89625 Springfield-Branson National Airport (SGF)
2008-08-05 23:52:00 81 72 71.0 2017-12-29 19:14:24.89625 Springfield-Branson National Airport (SGF)

A total of 24 rows are displayed.